EST,Max TemperatureF,Mean TemperatureF,Min TemperatureF,Max Dew PointF,MeanDew PointF,Min DewpointF,Max Humidity, Mean Humidity, Min Humidity, Max Sea Level PressureIn, Mean Sea Level PressureIn, Min Sea Level PressureIn, Max VisibilityMiles, Mean VisibilityMiles, Min VisibilityMiles, Max Wind SpeedMPH, Mean Wind SpeedMPH, Max Gust SpeedMPH,PrecipitationIn, CloudCover, Events, WindDirDegrees
2012-12-1,57,44,32,47,35,28,93,85,69,30.30,30.14,29.92,10,5,2,14,8,,0.00,8,Rain,138
2012-12-2,57,51,44,52,48,39,93,83,71,30.14,29.94,29.87,10,7,2,14,9,,0.48,8,Rain,237
2012-12-3,64,50,37,56,46,36,100,88,73,30.14,30.03,29.80,10,4,0,18,8,29,0.00,7,Fog,150
2012-12-4,64,52,37,57,41,27,90,68,53,30.14,29.94,29.80,10,10,10,24,16,31,0.01,4,Rain,257
2012-12-5,37,31,25,21,19,17,78,62,47,30.42,30.37,30.19,10,10,10,15,10,20,0.00,3,,354
2012-12-6,37,32,27,30,25,20,78,70,60,30.36,30.15,29.95,10,10,10,14,8,,0.00,3,,175
2012-12-7,46,42,37,37,35,31,87,79,71,29.97,29.95,29.91,10,8,4,10,6,,0.00,8,Rain,152
2012-12-8,37,32,26,32,28,21,93,84,76,30.22,30.01,29.89,10,6,0,15,10,,0.06,7,Fog-Snow,1
2012-12-9,34,31,28,31,27,24,93,84,75,30.24,29.97,29.67,10,6,0,24,9,30,0.05,7,Rain-Snow,62
2012-12-10,33,30,26,31,26,17,96,79,64,29.92,29.70,29.60,10,7,1,14,6,,0.00,8,,298
2012-12-11,33,27,21,25,19,14,78,69,59,30.10,30.01,29.92,10,10,9,17,6,24,0.00,6,Snow,213
2012-12-12,39,34,30,28,26,23,86,74,59,30.33,30.24,30.11,10,9,2,16,12,22,0.00,5,Snow,212
2012-12-13,46,38,30,26,24,21,75,62,42,30.33,30.24,30.10,10,10,10,16,10,23,0.00,0,,198
2012-12-14,43,36,30,30,28,25,89,77,60,30.27,30.21,30.12,10,10,6,9,6,,0.00,1,,149
2012-12-15,42,36,30,39,33,27,96,88,79,30.20,29.99,29.66,10,4,0,18,9,,0.16,6,Fog-Rain,107
2012-12-16,48,45,42,46,43,39,93,88,76,29.65,29.60,29.56,10,6,2,14,9,,0.03,8,Rain,213
2012-12-17,42,38,34,39,34,28,89,79,65,29.74,29.68,29.63,10,10,8,13,9,,0.00,8,,249
2012-12-18,39,34,30,32,28,27,92,79,63,29.78,29.74,29.68,10,9,6,10,7,,0.00,4,,268
2012-12-19,41,36,30,32,31,29,92,85,65,30.15,30.01,29.78,10,6,3,10,3,,0.00,4,,237
2012-12-20,44,38,32,43,35,29,93,88,81,30.09,29.56,29.12,10,5,1,26,12,34,0.48,8,Rain-Snow,107
2012-12-21,39,34,28,36,27,21,93,80,64,29.91,29.42,29.15,10,7,1,30,15,43,0.15,8,Rain-Snow,310
2012-12-22,32,31,30,24,21,19,79,69,64,30.08,30.01,29.90,10,10,10,21,15,34,0.00,6,,278
2012-12-23,32,26,21,24,20,15,89,73,63,30.08,29.97,29.90,10,10,5,13,9,17,0.00,6,,292
2012-12-24,28,24,21,23,19,15,86,75,66,30.06,29.99,29.92,10,10,10,12,5,,0.00,6,,47
2012-12-25,32,28,25,21,18,16,78,67,52,30.38,30.27,30.05,10,10,10,14,10,,0.00,6,,1
2012-12-26,30,27,24,25,21,19,86,77,66,30.33,30.09,29.96,10,6,1,25,16,36,0.00,8,Snow,30
2012-12-27,32,26,19,21,16,10,85,69,48,30.19,30.11,29.99,10,9,2,20,12,26,0.00,4,Snow,339
2012-12-28,28,22,15,21,16,12,88,78,66,30.20,30.12,30.00,10,10,10,7,2,,0.00,5,,184
2012-12-29,30,24,18,23,19,13,86,76,64,30.08,29.93,29.85,10,9,2,12,7,,0.00,7,Snow,344
2012-12-30,28,24,21,21,20,17,86,77,69,30.28,30.19,30.06,10,9,4,17,10,23,0.00,7,Snow,240
2012-12-31,36,30,24,27,20,13,77,69,61,30.11,29.99,29.88,10,10,7,21,12,25,0.00,6,,257